Time;durP1;ratioP1;P1;durP2;ratioP2;P2;SDS_P1;SDS_P2;PMS_P1;PMS_P2;Temp;Humidity;BMP_temperature;BMP_pressure;BME280_temperature;BME280_humidity;BME280_pressure;Samples;Min_cycle;Max_cycle;Signal;HPM_P1;HPM_P2
2021/09/29 00:02:39;;;;;;;4.10;2.65;;;;;;;;;;7389821;19;20034;-50
2021/09/29 00:05:07;;;;;;;6.47;3.80;;;;;;;;;;7392007;19;20018;-47
2021/09/29 00:07:36;;;;;;;4.88;2.90;;;;;;;;;;7392753;19;20034;-48
2021/09/29 00:10:06;;;;;;;3.47;2.38;;;;;;;;;;7392995;19;20046;-46
2021/09/29 00:12:33;;;;;;;7.95;2.47;;;;;;;;;;7391459;19;20018;-49
2021/09/29 00:15:01;;;;;;;3.85;2.42;;;;;;;;;;7391731;19;20011;-52
2021/09/29 00:17:28;;;;;;;4.32;2.55;;;;;;;;;;7393412;19;20015;-50
2021/09/29 00:19:55;;;;;;;6.35;2.70;;;;;;;;;;7390584;19;20054;-50
2021/09/29 00:22:23;;;;;;;3.47;2.10;;;;;;;;;;7392033;19;20089;-48
2021/09/29 00:24:50;;;;;;;3.88;2.50;;;;;;;;;;7392089;19;20038;-49
2021/09/29 00:27:17;;;;;;;3.00;1.90;;;;;;;;;;7392810;19;20084;-51
2021/09/29 00:29:44;;;;;;;3.97;2.30;;;;;;;;;;7392072;19;20036;-44
2021/09/29 00:32:12;;;;;;;4.05;2.25;;;;;;;;;;7391482;19;20034;-45
2021/09/29 00:34:40;;;;;;;3.20;2.03;;;;;;;;;;7392826;19;20014;-50
2021/09/29 00:37:07;;;;;;;4.30;2.60;;;;;;;;;;7394128;19;20077;-52
2021/09/29 00:39:35;;;;;;;5.30;2.92;;;;;;;;;;7391226;19;20018;-41
2021/09/29 00:42:04;;;;;;;3.58;1.98;;;;;;;;;;7391480;19;20002;-54
2021/09/29 00:44:31;;;;;;;4.68;2.25;;;;;;;;;;7389763;19;20018;-49
2021/09/29 00:46:59;;;;;;;4.95;2.67;;;;;;;;;;7389861;19;20010;-55
2021/09/29 00:49:26;;;;;;;6.25;3.63;;;;;;;;;;7391719;19;20094;-46
2021/09/29 00:51:55;;;;;;;4.07;2.50;;;;;;;;;;7393744;19;20031;-53
2021/09/29 00:54:28;;;;;;;6.28;3.45;;;;;;;;;;7391348;19;20015;-53
2021/09/29 00:56:56;;;;;;;4.13;2.50;;;;;;;;;;7391348;19;20021;-56
2021/09/29 00:59:24;;;;;;;4.20;2.65;;;;;;;;;;7390640;19;20006;-52
2021/09/29 01:01:52;;;;;;;3.67;2.25;;;;;;;;;;7391004;19;20510;-48
2021/09/29 01:04:24;;;;;;;4.10;2.50;;;;;;;;;;7392365;19;20038;-40
2021/09/29 01:07:09;;;;;;;4.30;2.25;;;;;;;;;;7390208;19;20661;-50
2021/09/29 01:09:59;;;;;;;5.13;3.15;;;;;;;;;;7390941;19;20025;-51
2021/09/29 01:12:48;;;;;;;4.63;2.78;;;;;;;;;;7390764;19;20094;-48
2021/09/29 01:15:23;;;;;;;5.00;3.05;;;;;;;;;;7390024;19;20024;-50
2021/09/29 01:18:08;;;;;;;5.40;3.25;;;;;;;;;;7389512;19;20010;-45
2021/09/29 01:20:58;;;;;;;4.40;2.67;;;;;;;;;;7390484;19;20011;-51
2021/09/29 01:23:39;;;;;;;4.70;2.58;;;;;;;;;;7389930;19;20023;-50
2021/09/29 01:26:20;;;;;;;4.00;2.40;;;;;;;;;;7389967;19;20019;-46
2021/09/29 01:28:57;;;;;;;4.05;2.40;;;;;;;;;;7390478;19;20035;-47
2021/09/29 01:31:25;;;;;;;4.70;3.13;;;;;;;;;;7389879;19;20021;-49
2021/09/29 01:33:53;;;;;;;5.30;3.38;;;;;;;;;;7390030;19;20015;-44
2021/09/29 01:36:22;;;;;;;4.60;2.75;;;;;;;;;;7388470;19;20014;-43
2021/09/29 01:38:55;;;;;;;4.82;2.65;;;;;;;;;;7390040;19;20070;-52
2021/09/29 01:41:25;;;;;;;3.55;2.15;;;;;;;;;;7389355;19;20014;-45
2021/09/29 01:43:54;;;;;;;4.47;2.45;;;;;;;;;;7389583;19;20359;-43
2021/09/29 01:46:23;;;;;;;4.18;2.75;;;;;;;;;;7389369;19;20018;-47
2021/09/29 01:49:14;;;;;;;5.80;2.97;;;;;;;;;;7387134;19;20019;-41
2021/09/29 01:51:45;;;;;;;5.70;3.25;;;;;;;;;;7389532;19;20010;-50
2021/09/29 01:54:14;;;;;;;5.03;3.10;;;;;;;;;;7390599;19;20652;-46
2021/09/29 01:56:44;;;;;;;5.20;3.00;;;;;;;;;;7395260;19;20014;-42
2021/09/29 01:59:12;;;;;;;3.75;2.30;;;;;;;;;;7397045;19;20043;-55
2021/09/29 02:01:41;;;;;;;3.78;2.10;;;;;;;;;;7396279;19;20014;-48
2021/09/29 02:04:11;;;;;;;3.72;2.40;;;;;;;;;;7396785;19;20006;-44
2021/09/29 02:06:49;;;;;;;5.70;2.28;;;;;;;;;;7399796;19;20015;-42
2021/09/29 02:09:18;;;;;;;4.93;2.90;;;;;;;;;;7396883;19;20006;-43
2021/09/29 02:11:46;;;;;;;4.03;2.38;;;;;;;;;;7396759;19;20031;-45
2021/09/29 02:14:17;;;;;;;5.10;2.60;;;;;;;;;;7399554;19;20006;-54
2021/09/29 02:16:47;;;;;;;5.57;3.38;;;;;;;;;;7393357;19;20074;-55
2021/09/29 02:19:15;;;;;;;6.15;3.17;;;;;;;;;;7396513;19;20011;-48
2021/09/29 02:21:43;;;;;;;4.65;3.00;;;;;;;;;;7396351;19;20014;-45
2021/09/29 02:24:11;;;;;;;7.82;3.38;;;;;;;;;;7395798;19;20594;-53
2021/09/29 02:26:39;;;;;;;5.38;2.72;;;;;;;;;;7395508;19;20010;-52
2021/09/29 02:29:08;;;;;;;4.72;2.88;;;;;;;;;;7395679;19;20024;-44
2021/09/29 02:31:36;;;;;;;4.82;2.50;;;;;;;;;;7395429;19;20616;-50
2021/09/29 02:34:04;;;;;;;5.85;2.63;;;;;;;;;;7395587;19;20010;-47
2021/09/29 02:36:32;;;;;;;5.05;2.95;;;;;;;;;;7392899;19;20018;-44
2021/09/29 02:39:00;;;;;;;5.25;3.10;;;;;;;;;;7395144;19;20011;-41
2021/09/29 02:41:28;;;;;;;4.65;2.72;;;;;;;;;;7396748;19;20027;-42
2021/09/29 02:43:55;;;;;;;7.72;3.75;;;;;;;;;;7395527;19;20010;-44
2021/09/29 02:46:23;;;;;;;4.43;2.70;;;;;;;;;;7395218;19;20025;-41
2021/09/29 02:48:51;;;;;;;4.90;2.78;;;;;;;;;;7393801;19;20014;-40
2021/09/29 02:51:19;;;;;;;4.72;3.00;;;;;;;;;;7396186;19;20026;-42
2021/09/29 02:53:47;;;;;;;5.10;2.90;;;;;;;;;;7395047;19;20006;-42
2021/09/29 02:56:15;;;;;;;5.82;3.00;;;;;;;;;;7393255;19;20006;-42
2021/09/29 02:58:42;;;;;;;24.55;10.95;;;;;;;;;;7395107;19;20021;-43
2021/09/29 03:01:10;;;;;;;23.65;10.30;;;;;;;;;;7394686;19;20015;-39
2021/09/29 03:03:37;;;;;;;14.23;6.70;;;;;;;;;;7394725;19;20021;-41
2021/09/29 03:06:05;;;;;;;10.13;4.30;;;;;;;;;;7393198;19;20014;-40
2021/09/29 03:08:32;;;;;;;5.30;3.08;;;;;;;;;;7393335;19;20018;-48
2021/09/29 03:10:59;;;;;;;5.47;2.78;;;;;;;;;;7397535;19;20490;-43
2021/09/29 03:13:27;;;;;;;5.50;2.70;;;;;;;;;;7396122;19;20007;-52
2021/09/29 03:15:54;;;;;;;5.45;3.15;;;;;;;;;;7393388;19;20015;-53
2021/09/29 03:18:21;;;;;;;7.13;3.65;;;;;;;;;;7393999;19;20034;-46
2021/09/29 03:20:49;;;;;;;20.85;10.23;;;;;;;;;;7394430;19;20010;-44
2021/09/29 03:23:16;;;;;;;11.52;6.22;;;;;;;;;;7399202;19;20011;-51
2021/09/29 03:25:44;;;;;;;7.93;5.15;;;;;;;;;;7394319;19;20022;-46
2021/09/29 03:28:11;;;;;;;7.50;4.50;;;;;;;;;;7393692;19;20050;-51
2021/09/29 03:30:39;;;;;;;7.35;4.20;;;;;;;;;;7394373;19;20014;-50
2021/09/29 03:33:07;;;;;;;8.43;4.80;;;;;;;;;;7393518;19;20470;-45
2021/09/29 03:35:35;;;;;;;10.75;4.97;;;;;;;;;;7391343;19;20015;-50
2021/09/29 03:38:03;;;;;;;12.93;5.85;;;;;;;;;;7392155;19;20010;-47
2021/09/29 03:40:31;;;;;;;10.80;6.55;;;;;;;;;;7393743;19;20031;-51
2021/09/29 03:42:58;;;;;;;10.27;6.70;;;;;;;;;;7393402;19;20029;-52
2021/09/29 03:45:26;;;;;;;7.05;4.47;;;;;;;;;;7393217;19;20017;-48
2021/09/29 03:47:53;;;;;;;11.13;6.05;;;;;;;;;;7392184;19;20018;-47
2021/09/29 03:50:21;;;;;;;10.13;5.63;;;;;;;;;;7393257;19;20007;-42
2021/09/29 03:52:49;;;;;;;8.73;5.20;;;;;;;;;;7394501;19;20053;-52
2021/09/29 03:55:17;;;;;;;8.27;4.55;;;;;;;;;;7395767;19;20007;-54
2021/09/29 03:57:44;;;;;;;9.13;5.15;;;;;;;;;;7393793;19;20029;-48
2021/09/29 04:00:13;;;;;;;10.13;4.80;;;;;;;;;;7392937;19;20037;-52
2021/09/29 04:02:41;;;;;;;9.13;5.22;;;;;;;;;;7390773;19;20010;-51
2021/09/29 04:05:09;;;;;;;9.48;4.80;;;;;;;;;;7393079;19;20042;-44
2021/09/29 04:07:38;;;;;;;6.57;3.88;;;;;;;;;;7390887;19;20010;-55
2021/09/29 04:10:07;;;;;;;11.40;4.57;;;;;;;;;;7392928;19;20074;-50
2021/09/29 04:12:35;;;;;;;19.13;10.40;;;;;;;;;;7392877;19;20022;-47
2021/09/29 04:15:03;;;;;;;12.73;6.32;;;;;;;;;;7391855;19;20010;-44
2021/09/29 04:17:31;;;;;;;9.10;5.97;;;;;;;;;;7391065;19;20006;-53
2021/09/29 04:19:58;;;;;;;8.35;5.00;;;;;;;;;;7392172;19;20007;-52
2021/09/29 04:22:26;;;;;;;8.77;5.13;;;;;;;;;;7393204;19;20034;-45
2021/09/29 04:24:53;;;;;;;7.35;4.95;;;;;;;;;;7392605;19;20010;-42
2021/09/29 04:27:21;;;;;;;7.25;4.90;;;;;;;;;;7392140;19;20015;-43
2021/09/29 04:29:48;;;;;;;7.65;5.10;;;;;;;;;;7392274;19;20010;-49
2021/09/29 04:32:15;;;;;;;6.43;3.80;;;;;;;;;;7392070;19;20014;-51
2021/09/29 04:34:43;;;;;;;6.90;4.18;;;;;;;;;;7391980;19;20011;-53
2021/09/29 04:37:10;;;;;;;7.38;4.72;;;;;;;;;;7389853;19;20397;-46
2021/09/29 04:39:38;;;;;;;7.20;4.60;;;;;;;;;;7391908;19;20014;-57
2021/09/29 04:42:05;;;;;;;8.48;5.30;;;;;;;;;;7391285;19;20033;-47
2021/09/29 04:44:33;;;;;;;7.53;4.55;;;;;;;;;;7391139;19;20007;-53
2021/09/29 04:47:00;;;;;;;6.00;4.03;;;;;;;;;;7389269;19;20046;-46
2021/09/29 04:49:27;;;;;;;6.68;4.28;;;;;;;;;;7389401;19;20014;-42
2021/09/29 04:51:55;;;;;;;7.03;4.65;;;;;;;;;;7389479;19;20732;-49
2021/09/29 04:54:22;;;;;;;7.63;4.53;;;;;;;;;;7391356;19;20031;-44
2021/09/29 04:56:51;;;;;;;6.43;4.78;;;;;;;;;;7390000;19;20090;-44
2021/09/29 04:59:19;;;;;;;8.80;5.55;;;;;;;;;;7391815;19;20013;-50
2021/09/29 05:01:46;;;;;;;6.28;4.03;;;;;;;;;;7391078;19;20043;-48
2021/09/29 05:04:15;;;;;;;6.47;4.00;;;;;;;;;;7390998;19;20078;-46
2021/09/29 05:06:44;;;;;;;7.25;4.85;;;;;;;;;;7390563;19;20016;-47
2021/09/29 05:09:11;;;;;;;7.18;4.85;;;;;;;;;;7390284;19;20029;-52
2021/09/29 05:11:46;;;;;;;6.55;4.60;;;;;;;;;;7390645;19;20006;-47
2021/09/29 05:14:14;;;;;;;6.75;4.40;;;;;;;;;;7394044;19;20018;-48
2021/09/29 05:16:41;;;;;;;8.00;5.30;;;;;;;;;;7389019;19;20011;-43
2021/09/29 05:19:09;;;;;;;9.35;5.05;;;;;;;;;;7390397;19;20013;-42
2021/09/29 05:21:36;;;;;;;7.53;4.93;;;;;;;;;;7388374;19;20014;-45
2021/09/29 05:24:05;;;;;;;6.45;4.63;;;;;;;;;;7389898;19;20074;-41
2021/09/29 05:26:32;;;;;;;7.38;4.35;;;;;;;;;;7390188;19;20015;-42
2021/09/29 05:29:01;;;;;;;7.20;5.15;;;;;;;;;;7390298;19;20018;-42
2021/09/29 05:31:29;;;;;;;9.70;5.97;;;;;;;;;;7397451;19;20007;-42
2021/09/29 05:33:56;;;;;;;7.82;4.93;;;;;;;;;;7397553;19;20019;-40
2021/09/29 05:36:24;;;;;;;10.38;6.25;;;;;;;;;;7395745;19;20011;-44
2021/09/29 05:38:51;;;;;;;8.95;5.90;;;;;;;;;;7398169;19;20015;-51
2021/09/29 05:41:19;;;;;;;8.77;5.35;;;;;;;;;;7397779;19;20011;-49
2021/09/29 05:43:46;;;;;;;10.85;7.18;;;;;;;;;;7397172;19;20107;-52
2021/09/29 05:46:14;;;;;;;10.30;5.90;;;;;;;;;;7397487;19;20011;-51
2021/09/29 05:48:42;;;;;;;8.75;5.60;;;;;;;;;;7397214;19;20011;-42
2021/09/29 05:51:10;;;;;;;10.63;7.05;;;;;;;;;;7397757;19;20079;-41
2021/09/29 05:53:37;;;;;;;11.98;7.32;;;;;;;;;;7397331;19;20028;-41
2021/09/29 05:56:06;;;;;;;7.18;5.00;;;;;;;;;;7396200;19;20481;-42
2021/09/29 05:58:34;;;;;;;12.60;5.28;;;;;;;;;;7396606;19;20475;-42
2021/09/29 06:01:02;;;;;;;8.70;5.03;;;;;;;;;;7396707;19;20590;-40
2021/09/29 06:03:30;;;;;;;6.43;4.60;;;;;;;;;;7396474;19;20022;-42
2021/09/29 06:05:58;;;;;;;5.50;3.45;;;;;;;;;;7397052;19;20019;-40
2021/09/29 06:08:26;;;;;;;5.38;3.33;;;;;;;;;;7396306;19;20022;-42
2021/09/29 06:10:54;;;;;;;10.20;3.50;;;;;;;;;;7395139;19;20025;-45
2021/09/29 06:13:21;;;;;;;6.15;3.92;;;;;;;;;;7397104;19;20010;-48
2021/09/29 06:15:49;;;;;;;5.43;3.45;;;;;;;;;;7396225;19;20014;-53
2021/09/29 06:18:17;;;;;;;4.88;2.90;;;;;;;;;;7396138;19;20498;-48
2021/09/29 06:20:48;;;;;;;4.45;3.05;;;;;;;;;;7395234;19;20011;-50
2021/09/29 06:23:17;;;;;;;6.35;3.83;;;;;;;;;;7395807;19;20015;-45
2021/09/29 06:25:45;;;;;;;5.75;3.78;;;;;;;;;;7393581;19;20482;-53
2021/09/29 06:28:13;;;;;;;4.43;3.08;;;;;;;;;;7395624;19;20039;-43
2021/09/29 06:30:41;;;;;;;4.82;3.30;;;;;;;;;;7395630;19;20498;-54
2021/09/29 06:33:09;;;;;;;4.65;2.88;;;;;;;;;;7395753;19;20031;-48
2021/09/29 06:35:37;;;;;;;3.40;2.42;;;;;;;;;;7395412;19;20019;-46
2021/09/29 06:38:05;;;;;;;4.13;2.88;;;;;;;;;;7395697;19;20050;-53
2021/09/29 06:40:33;;;;;;;4.57;3.33;;;;;;;;;;7394242;19;20015;-46
2021/09/29 06:43:04;;;;;;;5.50;3.30;;;;;;;;;;7394891;19;20346;-50
2021/09/29 06:45:34;;;;;;;4.07;2.63;;;;;;;;;;7394197;19;20018;-52
2021/09/29 06:48:02;;;;;;;4.25;2.97;;;;;;;;;;7393967;19;20015;-52
2021/09/29 06:50:30;;;;;;;5.00;3.35;;;;;;;;;;7395515;19;20015;-51
2021/09/29 06:52:58;;;;;;;4.22;2.92;;;;;;;;;;7395185;19;20026;-53
2021/09/29 06:55:26;;;;;;;5.55;3.10;;;;;;;;;;7394808;19;20500;-50
2021/09/29 06:57:55;;;;;;;4.72;3.17;;;;;;;;;;7393759;19;20015;-48
2021/09/29 07:00:23;;;;;;;4.35;3.05;;;;;;;;;;7393425;19;20041;-48
2021/09/29 07:02:51;;;;;;;4.50;3.17;;;;;;;;;;7394674;19;20014;-46
2021/09/29 07:05:19;;;;;;;4.80;3.17;;;;;;;;;;7395670;19;20010;-49
2021/09/29 07:07:47;;;;;;;4.43;3.03;;;;;;;;;;7394481;19;20372;-52
2021/09/29 07:10:15;;;;;;;4.63;3.40;;;;;;;;;;7394019;19;20014;-44
2021/09/29 07:12:43;;;;;;;4.40;3.20;;;;;;;;;;7399132;19;20006;-44
2021/09/29 07:15:12;;;;;;;4.55;3.15;;;;;;;;;;7395229;19;20069;-44
2021/09/29 07:17:41;;;;;;;7.22;3.20;;;;;;;;;;7392533;19;20016;-49
2021/09/29 07:20:10;;;;;;;4.35;3.20;;;;;;;;;;7394462;19;20021;-47
2021/09/29 07:22:39;;;;;;;4.82;3.55;;;;;;;;;;7392891;19;20046;-52
2021/09/29 07:25:08;;;;;;;4.80;3.40;;;;;;;;;;7393035;19;20062;-46
2021/09/29 07:27:35;;;;;;;4.47;3.10;;;;;;;;;;7394430;19;20010;-48
2021/09/29 07:30:04;;;;;;;4.38;2.85;;;;;;;;;;7392880;19;20015;-43
2021/09/29 07:32:33;;;;;;;5.07;3.50;;;;;;;;;;7393601;19;20511;-41
2021/09/29 07:35:00;;;;;;;4.97;3.03;;;;;;;;;;7393183;19;20475;-42
2021/09/29 07:37:28;;;;;;;5.57;3.75;;;;;;;;;;7390142;19;20010;-42
2021/09/29 07:39:56;;;;;;;5.15;3.00;;;;;;;;;;7393933;19;20017;-42
2021/09/29 07:42:23;;;;;;;4.78;3.50;;;;;;;;;;7394159;19;20011;-41
2021/09/29 07:44:51;;;;;;;4.93;3.33;;;;;;;;;;7390854;19;20184;-47
2021/09/29 07:47:18;;;;;;;4.88;3.00;;;;;;;;;;7393014;19;20010;-52
2021/09/29 07:49:45;;;;;;;5.20;3.50;;;;;;;;;;7392586;19;20324;-48
2021/09/29 07:52:13;;;;;;;5.05;3.20;;;;;;;;;;7393161;19;20019;-45
2021/09/29 07:54:40;;;;;;;5.35;2.97;;;;;;;;;;7393008;19;20010;-46
2021/09/29 07:57:08;;;;;;;6.68;3.80;;;;;;;;;;7392089;19;20010;-48
2021/09/29 07:59:36;;;;;;;4.15;2.80;;;;;;;;;;7392301;19;20006;-42
2021/09/29 08:02:03;;;;;;;5.72;2.80;;;;;;;;;;7392801;19;20018;-43
2021/09/29 08:04:31;;;;;;;4.57;3.20;;;;;;;;;;7392445;19;20018;-47
2021/09/29 08:06:59;;;;;;;4.35;3.03;;;;;;;;;;7392444;19;20539;-47
2021/09/29 08:09:28;;;;;;;5.53;3.17;;;;;;;;;;7392363;19;20011;-42
2021/09/29 08:11:56;;;;;;;7.38;3.53;;;;;;;;;;7392151;19;20527;-47
2021/09/29 08:14:24;;;;;;;4.97;3.50;;;;;;;;;;7392318;19;20028;-43
2021/09/29 08:16:51;;;;;;;4.20;2.95;;;;;;;;;;7389665;19;20030;-51
2021/09/29 08:19:19;;;;;;;6.38;3.80;;;;;;;;;;7395798;19;20010;-51
2021/09/29 08:21:48;;;;;;;4.82;3.47;;;;;;;;;;7392551;19;20034;-49
2021/09/29 08:24:22;;;;;;;5.15;3.40;;;;;;;;;;7391985;19;20015;-46
2021/09/29 08:26:59;;;;;;;4.85;3.05;;;;;;;;;;7392782;19;20050;-50
2021/09/29 08:29:44;;;;;;;9.85;3.75;;;;;;;;;;7390572;19;20676;-41
2021/09/29 08:32:36;;;;;;;5.30;3.50;;;;;;;;;;7392074;19;20467;-41
2021/09/29 08:35:14;;;;;;;6.80;3.90;;;;;;;;;;7391726;19;20014;-42
2021/09/29 08:37:48;;;;;;;4.30;2.97;;;;;;;;;;7390172;19;20018;-41
2021/09/29 08:40:21;;;;;;;4.15;2.78;;;;;;;;;;7392044;19;20049;-47
2021/09/29 08:45:32;;;;;;;4.35;3.17;;;;;;;;;;7388955;19;20010;-43
2021/09/29 08:54:21;;;;;;;4.65;3.25;;;;;;;;;;7391437;19;20471;-50
2021/09/29 09:15:58;;;;;;;4.75;3.28;;;;;;;;;;7391159;19;20132;-45
2021/09/29 09:18:26;;;;;;;4.78;3.47;;;;;;;;;;7388747;19;20102;-44
2021/09/29 09:21:02;;;;;;;4.57;3.13;;;;;;;;;;7389175;19;20027;-46
2021/09/29 09:23:41;;;;;;;4.63;3.42;;;;;;;;;;7390394;19;20010;-43
2021/09/29 09:26:21;;;;;;;4.95;3.20;;;;;;;;;;7390548;19;20018;-43
2021/09/29 09:29:02;;;;;;;6.15;3.40;;;;;;;;;;7391028;19;20553;-44
2021/09/29 09:31:30;;;;;;;5.20;3.08;;;;;;;;;;7389824;19;20482;-41
2021/09/29 09:34:04;;;;;;;4.47;3.10;;;;;;;;;;7390055;19;20006;-44
2021/09/29 09:36:33;;;;;;;6.32;3.67;;;;;;;;;;7389737;19;20006;-47
2021/09/29 09:39:11;;;;;;;4.68;2.90;;;;;;;;;;7390198;19;20080;-55
2021/09/29 09:41:58;;;;;;;5.78;3.40;;;;;;;;;;7390498;19;20022;-51
2021/09/29 09:44:29;;;;;;;4.65;3.65;;;;;;;;;;7388178;19;20011;-40
2021/09/29 09:47:15;;;;;;;5.05;3.50;;;;;;;;;;7389504;19;20031;-57
2021/09/29 09:49:52;;;;;;;5.82;3.55;;;;;;;;;;7390117;19;20081;-47
2021/09/29 09:52:34;;;;;;;6.82;3.72;;;;;;;;;;7389020;19;20011;-51
2021/09/29 09:55:05;;;;;;;4.60;3.28;;;;;;;;;;7389696;19;20026;-51
2021/09/29 09:57:34;;;;;;;4.95;3.67;;;;;;;;;;7388108;19;20074;-53
2021/09/29 10:00:05;;;;;;;5.97;3.50;;;;;;;;;;7389516;19;20074;-53
2021/09/29 10:02:42;;;;;;;4.85;3.65;;;;;;;;;;7391105;19;20026;-46
2021/09/29 10:05:13;;;;;;;5.70;3.22;;;;;;;;;;7389134;19;20066;-55
2021/09/29 10:07:41;;;;;;;4.10;3.05;;;;;;;;;;7389335;19;20070;-46
2021/09/29 10:10:18;;;;;;;4.72;3.10;;;;;;;;;;7389604;19;20022;-50
2021/09/29 10:27:13;;;;;;;5.75;3.58;;;;;;;;;;7394862;19;20021;-48
2021/09/29 10:29:48;;;;;;;5.55;3.55;;;;;;;;;;7395884;19;20078;-45
2021/09/29 10:32:20;;;;;;;5.15;3.55;;;;;;;;;;7394984;19;20026;-52
2021/09/29 10:43:05;;;;;;;6.68;4.30;;;;;;;;;;7395771;19;20037;-48
2021/09/29 10:48:28;;;;;;;7.82;6.43;;;;;;;;;;7392779;19;19915;-52
2021/09/29 11:10:07;;;;;;;5.28;3.95;;;;;;;;;;7388661;19;20014;-45
2021/09/29 11:29:19;;;;;;;6.28;4.28;;;;;;;;;;7392403;19;20014;-45
2021/09/29 11:31:43;;;;;;;6.45;4.90;;;;;;;;;;7391925;19;20017;-46
2021/09/29 11:34:18;;;;;;;6.15;4.53;;;;;;;;;;7393825;19;20007;-48
2021/09/29 12:12:23;;;;;;;9.00;5.15;;;;;;;;;;7392128;19;20082;-49
2021/09/29 12:14:57;;;;;;;5.40;3.88;;;;;;;;;;7397541;19;20007;-44
2021/09/29 12:17:26;;;;;;;;;;;;;;;;;;7393448;19;20035;-53
2021/09/29 12:19:57;;;;;;;5.75;4.07;;;;;;;;;;7392427;19;20375;-51
2021/09/29 12:22:29;;;;;;;9.57;4.07;;;;;;;;;;7393099;19;20018;-52
2021/09/29 12:30:38;;;;;;;78.25;51.70;;;;;;;;;;7391486;19;20086;-48
2021/09/29 12:35:54;;;;;;;15.27;9.15;;;;;;;;;;7392175;19;20090;-50
2021/09/29 12:38:37;;;;;;;9.68;4.35;;;;;;;;;;7389116;19;20030;-55
2021/09/29 12:41:06;;;;;;;6.60;4.30;;;;;;;;;;7391702;19;20019;-56
2021/09/29 12:43:33;;;;;;;5.93;4.22;;;;;;;;;;7391499;19;20011;-48
2021/09/29 12:46:00;;;;;;;5.70;4.13;;;;;;;;;;7391799;19;20030;-49
2021/09/29 12:48:29;;;;;;;8.27;4.63;;;;;;;;;;7391560;19;20006;-45
2021/09/29 12:51:03;;;;;;;5.57;4.05;;;;;;;;;;7392051;19;20015;-50
2021/09/29 12:53:37;;;;;;;5.03;3.35;;;;;;;;;;7392639;19;20018;-51
2021/09/29 12:56:12;;;;;;;7.50;3.78;;;;;;;;;;7390374;19;20006;-46
2021/09/29 12:58:39;;;;;;;6.50;3.80;;;;;;;;;;7390124;19;20029;-47
2021/09/29 13:01:07;;;;;;;5.43;4.03;;;;;;;;;;7389850;19;20015;-52
2021/09/29 13:03:34;;;;;;;6.65;4.13;;;;;;;;;;7391200;19;20027;-49
2021/09/29 13:06:05;;;;;;;5.38;3.83;;;;;;;;;;7389769;19;20019;-48
2021/09/29 13:08:33;;;;;;;6.25;3.38;;;;;;;;;;7391156;19;20034;-50
2021/09/29 13:11:00;;;;;;;5.82;3.35;;;;;;;;;;7390960;19;20015;-52
2021/09/29 13:13:35;;;;;;;7.18;5.10;;;;;;;;;;7391467;19;20030;-48
2021/09/29 13:16:05;;;;;;;8.65;5.53;;;;;;;;;;7390807;19;20006;-46
2021/09/29 13:18:48;;;;;;;7.10;4.93;;;;;;;;;;7389577;19;20014;-48
2021/09/29 13:21:23;;;;;;;5.20;3.72;;;;;;;;;;7390101;19;20038;-49
2021/09/29 13:37:30;;;;;;;5.70;3.50;;;;;;;;;;7385805;19;20016;-42
2021/09/29 13:39:58;;;;;;;8.45;3.88;;;;;;;;;;7387302;19;20368;-48
2021/09/29 13:42:25;;;;;;;5.68;4.03;;;;;;;;;;7390126;19;20015;-49
2021/09/29 13:44:54;;;;;;;5.63;3.53;;;;;;;;;;7389927;19;20014;-47
2021/09/29 13:47:22;;;;;;;5.15;3.50;;;;;;;;;;7390156;19;20019;-42
2021/09/29 13:49:50;;;;;;;6.93;3.70;;;;;;;;;;7390094;19;20034;-49
2021/09/29 13:52:24;;;;;;;64.70;33.85;;;;;;;;;;7397022;19;20018;-44
2021/09/29 13:54:57;;;;;;;79.95;43.40;;;;;;;;;;7392972;19;20029;-45
2021/09/29 13:57:27;;;;;;;18.50;10.88;;;;;;;;;;7397332;19;20014;-47
2021/09/29 14:30:18;;;;;;;7.20;3.60;;;;;;;;;;7395379;19;20007;-50
2021/09/29 14:35:42;;;;;;;5.05;3.47;;;;;;;;;;7393676;19;20014;-50
2021/09/29 14:38:10;;;;;;;7.35;4.10;;;;;;;;;;7394493;19;20590;-47
2021/09/29 14:40:38;;;;;;;4.88;3.10;;;;;;;;;;7395212;19;20022;-48
2021/09/29 14:43:05;;;;;;;41.13;19.20;;;;;;;;;;7395510;19;20039;-49
2021/09/29 14:45:35;;;;;;;15.23;7.45;;;;;;;;;;7395958;19;20058;-54
2021/09/29 14:48:03;;;;;;;7.53;4.90;;;;;;;;;;7395923;19;20021;-45
2021/09/29 14:50:30;;;;;;;6.68;4.32;;;;;;;;;;7395417;19;20010;-42
2021/09/29 14:53:00;;;;;;;6.35;4.43;;;;;;;;;;7394264;19;20043;-48
2021/09/29 14:55:30;;;;;;;5.60;3.80;;;;;;;;;;7395039;19;20018;-45
2021/09/29 14:57:57;;;;;;;6.28;4.00;;;;;;;;;;7394236;19;20458;-51
2021/09/29 15:00:30;;;;;;;5.32;3.60;;;;;;;;;;7395187;19;20013;-46
2021/09/29 15:02:59;;;;;;;7.38;4.60;;;;;;;;;;7392853;19;20010;-44
2021/09/29 15:05:28;;;;;;;13.82;5.03;;;;;;;;;;7394830;19;20096;-44
2021/09/29 15:07:56;;;;;;;6.38;4.65;;;;;;;;;;7395073;19;20082;-42
2021/09/29 15:10:23;;;;;;;9.80;4.65;;;;;;;;;;7394746;19;20010;-47
2021/09/29 15:12:51;;;;;;;6.72;4.63;;;;;;;;;;7394256;19;20628;-42
2021/09/29 15:15:24;;;;;;;7.47;5.07;;;;;;;;;;7395494;19;20018;-46
2021/09/29 15:18:10;;;;;;;7.10;4.50;;;;;;;;;;7393429;19;20038;-52
2021/09/29 15:47:48;;;;;;;5.75;3.78;;;;;;;;;;7393338;19;20014;-46
2021/09/29 15:50:31;;;;;;;6.20;3.55;;;;;;;;;;7392501;19;20011;-45
2021/09/29 15:56:02;;;;;;;6.85;3.00;;;;;;;;;;7392675;19;20021;-45
2021/09/29 16:06:46;;;;;;;6.75;4.47;;;;;;;;;;7393370;19;20018;-43
2021/09/29 16:20:52;;;;;;;5.50;3.33;;;;;;;;;;7391223;19;20043;-43
2021/09/29 16:42:06;;;;;;;82.82;37.13;;;;;;;;;;7378865;19;20000;-49
2021/09/29 16:44:34;;;;;;;199.38;75.80;;;;;;;;;;7391087;19;20011;-46
2021/09/29 16:47:03;;;;;;;44.60;22.88;;;;;;;;;;7391114;19;20010;-51
2021/09/29 16:49:30;;;;;;;20.75;10.45;;;;;;;;;;7390899;19;20057;-49
2021/09/29 16:52:46;;;;;;;10.02;6.10;;;;;;;;;;7392164;19;20034;-44
2021/09/29 16:54:45;;;;;;;8.27;4.95;;;;;;;;;;7387146;19;20013;-48
2021/09/29 16:57:17;;;;;;;6.68;4.93;;;;;;;;;;7389074;19;20014;-47
2021/09/29 17:02:14;;;;;;;7.88;4.72;;;;;;;;;;7389216;19;20011;-46
2021/09/29 17:04:45;;;;;;;8.88;5.25;;;;;;;;;;7389771;19;20014;-46
2021/09/29 17:07:13;;;;;;;6.80;4.20;;;;;;;;;;7391599;19;20010;-51
2021/09/29 17:09:40;;;;;;;10.40;4.82;;;;;;;;;;7391592;19;20078;-45
2021/09/29 17:12:08;;;;;;;6.22;3.92;;;;;;;;;;7391216;19;20010;-40
2021/09/29 17:14:36;;;;;;;7.30;4.30;;;;;;;;;;7394457;19;20455;-45
2021/09/29 17:17:04;;;;;;;7.55;4.75;;;;;;;;;;7387289;19;20483;-44
2021/09/29 17:19:31;;;;;;;10.60;5.25;;;;;;;;;;7387402;19;20023;-41
2021/09/29 17:22:00;;;;;;;7.57;4.53;;;;;;;;;;7390384;19;20014;-42
2021/09/29 17:24:28;;;;;;;7.30;4.50;;;;;;;;;;7390468;19;20479;-49
2021/09/29 17:26:56;;;;;;;8.05;5.28;;;;;;;;;;7396671;19;20022;-44
2021/09/29 17:29:24;;;;;;;42.88;19.13;;;;;;;;;;7398645;19;20018;-46
2021/09/29 17:32:10;;;;;;;23.70;11.90;;;;;;;;;;7397873;19;20023;-47
2021/09/29 17:53:40;;;;;;;10.60;6.65;;;;;;;;;;7397349;19;20007;-43
2021/09/29 17:56:07;;;;;;;11.70;6.50;;;;;;;;;;7396952;19;20018;-41
2021/09/29 17:58:35;;;;;;;10.70;6.53;;;;;;;;;;7396184;19;20078;-41
2021/09/29 18:01:03;;;;;;;11.80;7.32;;;;;;;;;;7396513;19;20017;-48
2021/09/29 18:03:53;;;;;;;8.45;5.63;;;;;;;;;;7394281;19;20014;-44
2021/09/29 18:06:27;;;;;;;11.27;5.80;;;;;;;;;;7395020;19;20617;-44
2021/09/29 18:08:55;;;;;;;10.75;7.20;;;;;;;;;;7396396;19;20015;-42
2021/09/29 18:11:23;;;;;;;11.85;6.78;;;;;;;;;;7396978;19;20011;-43
2021/09/29 18:13:50;;;;;;;9.10;5.97;;;;;;;;;;7399350;19;20082;-43
2021/09/29 18:16:18;;;;;;;10.70;7.20;;;;;;;;;;7396384;19;20099;-44
2021/09/29 18:18:46;;;;;;;10.35;7.20;;;;;;;;;;7395738;19;20014;-42
2021/09/29 18:21:14;;;;;;;7.88;5.65;;;;;;;;;;7396950;19;20014;-45
2021/09/29 18:23:43;;;;;;;9.50;6.45;;;;;;;;;;7396931;19;20022;-46
2021/09/29 18:26:17;;;;;;;8.65;6.20;;;;;;;;;;7396900;19;20014;-43
2021/09/29 18:28:50;;;;;;;9.68;6.30;;;;;;;;;;7394758;19;20050;-45
2021/09/29 18:31:18;;;;;;;10.82;7.72;;;;;;;;;;7396431;19;20013;-41
2021/09/29 18:33:46;;;;;;;10.25;5.90;;;;;;;;;;7391505;19;20014;-41
2021/09/29 18:36:15;;;;;;;12.70;8.00;;;;;;;;;;7393123;19;20030;-42
2021/09/29 18:38:45;;;;;;;9.20;6.18;;;;;;;;;;7394010;19;20014;-42
2021/09/29 18:41:32;;;;;;;16.65;7.20;;;;;;;;;;7395854;19;20034;-40
2021/09/29 18:44:03;;;;;;;12.45;6.05;;;;;;;;;;7395246;19;20017;-41
2021/09/29 18:46:33;;;;;;;10.50;6.75;;;;;;;;;;7395699;19;20534;-43
2021/09/29 18:49:08;;;;;;;16.75;7.05;;;;;;;;;;7395619;19;20017;-41
2021/09/29 18:51:38;;;;;;;9.75;5.40;;;;;;;;;;7395390;19;20074;-42
2021/09/29 18:54:29;;;;;;;8.82;5.03;;;;;;;;;;7395159;19;20011;-45
2021/09/29 19:07:50;;;;;;;7.30;4.63;;;;;;;;;;7395640;19;20018;-42
2021/09/29 19:10:19;;;;;;;8.70;5.22;;;;;;;;;;7395480;19;20014;-39
2021/09/29 19:12:47;;;;;;;7.32;4.30;;;;;;;;;;7395816;19;20034;-41
2021/09/29 19:15:14;;;;;;;11.70;4.75;;;;;;;;;;7395101;19;20010;-45
2021/09/29 19:17:44;;;;;;;7.90;5.15;;;;;;;;;;7394212;19;20022;-47
2021/09/29 19:20:13;;;;;;;7.43;4.80;;;;;;;;;;7392956;19;20010;-42
2021/09/29 19:22:53;;;;;;;6.80;4.75;;;;;;;;;;7392557;19;20047;-41
2021/09/29 19:25:22;;;;;;;12.20;5.95;;;;;;;;;;7392861;19;20483;-47
2021/09/29 19:27:52;;;;;;;13.30;5.65;;;;;;;;;;7394766;19;20014;-41
2021/09/29 19:30:20;;;;;;;7.70;5.18;;;;;;;;;;7395225;19;20915;-41
2021/09/29 19:32:50;;;;;;;9.75;5.07;;;;;;;;;;7398346;19;20018;-46
2021/09/29 19:35:19;;;;;;;9.68;5.50;;;;;;;;;;7398476;19;20010;-44
2021/09/29 19:37:48;;;;;;;8.75;5.70;;;;;;;;;;7394148;19;20010;-43
2021/09/29 19:40:17;;;;;;;11.40;5.90;;;;;;;;;;7392730;19;20013;-44